Time,TemperatureF,DewpointF,PressureIn,WindDirection,WindDirectionDegrees,WindSpeedMPH,WindSpeedGustMPH,Humidity,HourlyPrecipIn,Conditions,Clouds,dailyrainin,SoftwareType,DateUTC
2013-12-17 00:04:00,12.0,0.1,29.78,SW,230,4.5,6.0,58,0.00,,---,0.00,VWS V13.01,2013-12-17 06:04:00,
2013-12-17 00:09:00,12.2,0.3,29.78,SW,232,6.0,6.0,58,0.00,,---,0.00,VWS V13.01,2013-12-17 06:09:00,
2013-12-17 00:14:00,12.2,0.3,29.78,SSW,205,4.7,4.7,58,0.00,,---,0.00,VWS V13.01,2013-12-17 06:14:00,
2013-12-17 00:19:00,12.4,0.4,29.75,SW,233,5.1,5.1,58,0.00,,---,0.00,VWS V13.01,2013-12-17 06:19:00,
2013-12-17 00:24:00,12.4,0.4,29.75,WSW,250,4.5,4.5,58,0.00,,---,0.00,VWS V13.01,2013-12-17 06:24:00,
2013-12-17 00:29:00,12.6,0.6,29.75,SW,223,4.7,6.0,58,0.00,,---,0.00,VWS V13.01,2013-12-17 06:29:00,
2013-12-17 00:34:00,12.6,0.6,29.75,SSW,207,4.7,4.7,58,0.00,,---,0.00,VWS V13.01,2013-12-17 06:34:00,
2013-12-17 00:39:00,12.6,0.6,29.75,SW,234,5.1,6.0,58,0.00,,---,0.00,VWS V13.01,2013-12-17 06:39:00,
2013-12-17 00:44:00,12.7,0.8,29.75,WSW,256,5.1,6.0,58,0.00,,---,0.00,VWS V13.01,2013-12-17 06:44:00,
2013-12-17 00:49:00,12.7,0.8,29.75,SSW,197,6.0,6.0,58,0.00,,---,0.00,VWS V13.01,2013-12-17 06:49:00,
2013-12-17 00:54:00,12.7,0.8,29.75,SW,230,4.7,7.8,58,0.00,,---,0.00,VWS V13.01,2013-12-17 06:54:00,
2013-12-17 00:59:00,12.7,0.8,29.75,SW,223,8.3,8.3,58,0.00,,---,0.00,VWS V13.01,2013-12-17 06:59:00,
2013-12-17 01:04:00,12.9,0.9,29.75,SW,218,6.9,6.9,58,0.00,,---,0.00,VWS V13.01,2013-12-17 07:04:00,
2013-12-17 01:10:00,12.9,0.9,29.75,SW,221,5.1,7.8,58,0.00,,---,0.00,VWS V13.01,2013-12-17 07:10:00,
2013-12-17 01:15:00,13.1,1.1,29.75,SSW,193,4.7,6.5,58,0.00,,---,0.00,VWS V13.01,2013-12-17 07:15:00,
2013-12-17 01:20:00,13.3,1.3,29.75,WSW,257,6.9,7.8,58,0.00,,---,0.00,VWS V13.01,2013-12-17 07:20:00,
2013-12-17 01:25:00,13.1,1.1,29.75,SSW,207,4.5,4.5,58,0.00,,---,0.00,VWS V13.01,2013-12-17 07:25:00,
2013-12-17 01:30:00,12.9,0.9,29.75,SW,221,7.8,7.8,58,0.00,,---,0.00,VWS V13.01,2013-12-17 07:30:00,
2013-12-17 01:35:00,13.1,1.1,29.75,SW,223,4.5,5.6,58,0.00,,---,0.00,VWS V13.01,2013-12-17 07:35:00,
2013-12-17 01:40:00,12.9,0.9,29.75,SSW,213,5.6,5.6,58,0.00,,---,0.00,VWS V13.01,2013-12-17 07:40:00,
2013-12-17 01:45:00,12.9,0.9,29.75,SSW,205,4.5,4.7,58,0.00,,---,0.00,VWS V13.01,2013-12-17 07:45:00,
2013-12-17 01:50:00,12.7,0.8,29.75,SW,223,5.6,5.6,58,0.00,,---,0.00,VWS V13.01,2013-12-17 07:50:00,
2013-12-17 01:55:00,12.7,0.8,29.75,SSW,203,4.0,4.5,58,0.00,,---,0.00,VWS V13.01,2013-12-17 07:55:00,
2013-12-17 02:00:00,12.7,0.8,29.75,SW,226,5.1,5.1,58,0.00,,---,0.00,VWS V13.01,2013-12-17 08:00:00,
2013-12-17 02:05:00,12.6,0.6,29.75,South,191,4.7,6.9,58,0.00,,---,0.00,VWS V13.01,2013-12-17 08:05:00,
2013-12-17 02:11:00,12.6,0.6,29.75,SSW,197,4.7,4.7,58,0.00,,---,0.00,VWS V13.01,2013-12-17 08:11:00,
2013-12-17 02:16:00,12.6,0.6,29.75,SW,218,4.5,5.1,58,0.00,,---,0.00,VWS V13.01,2013-12-17 08:16:00,
2013-12-17 02:21:00,12.6,0.6,29.75,SSW,206,3.1,5.1,58,0.00,,---,0.00,VWS V13.01,2013-12-17 08:21:00,
2013-12-17 02:26:00,12.6,0.6,29.75,SSW,201,4.7,6.0,58,0.00,,---,0.00,VWS V13.01,2013-12-17 08:26:00,
2013-12-17 02:31:00,12.6,0.6,29.75,SSW,196,4.0,4.0,58,0.00,,---,0.00,VWS V13.01,2013-12-17 08:31:00,
2013-12-17 02:36:00,12.6,0.6,29.75,SSW,211,5.6,5.6,58,0.00,,---,0.00,VWS V13.01,2013-12-17 08:36:00,
2013-12-17 02:41:00,12.4,0.4,29.75,SSW,196,4.5,5.1,58,0.00,,---,0.00,VWS V13.01,2013-12-17 08:41:00,
2013-12-17 02:46:00,12.2,0.3,29.75,South,190,4.0,4.7,58,0.00,,---,0.00,VWS V13.01,2013-12-17 08:46:00,
2013-12-17 02:51:00,12.2,0.3,29.75,SW,219,4.7,4.7,58,0.00,,---,0.00,VWS V13.01,2013-12-17 08:51:00,
2013-12-17 02:56:00,12.2,0.3,29.75,SW,231,4.7,5.6,58,0.00,,---,0.00,VWS V13.01,2013-12-17 08:56:00,
2013-12-17 03:01:00,12.2,0.3,29.75,WSW,242,4.0,4.5,58,0.00,,---,0.00,VWS V13.01,2013-12-17 09:01:00,
2013-12-17 03:06:00,12.2,0.3,29.75,SW,230,4.5,4.5,58,0.00,,---,0.00,VWS V13.01,2013-12-17 09:06:00,
2013-12-17 03:11:00,12.0,0.1,29.75,SW,230,4.7,4.7,58,0.00,,---,0.00,VWS V13.01,2013-12-17 09:11:00,
2013-12-17 03:16:00,12.2,0.3,29.75,SSW,204,4.7,4.7,58,0.00,,---,0.00,VWS V13.01,2013-12-17 09:16:00,
2013-12-17 03:22:00,12.2,0.3,29.75,SSW,213,4.0,5.6,58,0.00,,---,0.00,VWS V13.01,2013-12-17 09:22:00,
2013-12-17 03:27:00,12.2,0.3,29.75,SW,226,4.7,5.1,58,0.00,,---,0.00,VWS V13.01,2013-12-17 09:27:00,
2013-12-17 03:32:00,12.2,0.3,29.75,SSW,213,5.1,6.0,58,0.00,,---,0.00,VWS V13.01,2013-12-17 09:32:00,
2013-12-17 03:37:00,12.2,0.3,29.75,SW,235,4.5,5.6,58,0.00,,---,0.00,VWS V13.01,2013-12-17 09:37:00,
2013-12-17 03:42:00,12.2,0.3,29.75,SW,222,4.0,4.7,58,0.00,,---,0.00,VWS V13.01,2013-12-17 09:42:00,
2013-12-17 03:47:00,12.2,0.3,29.75,SW,223,4.7,4.7,58,0.00,,---,0.00,VWS V13.01,2013-12-17 09:47:00,
2013-12-17 03:52:00,12.2,0.3,29.75,SW,226,4.5,5.6,58,0.00,,---,0.00,VWS V13.01,2013-12-17 09:52:00,
2013-12-17 03:57:00,12.4,0.4,29.75,SW,233,3.6,4.0,58,0.00,,---,0.00,VWS V13.01,2013-12-17 09:57:00,
2013-12-17 04:02:00,12.6,0.6,29.75,SSW,213,3.6,4.0,58,0.00,,---,0.00,VWS V13.01,2013-12-17 10:02:00,
2013-12-17 04:07:00,12.7,0.8,29.75,SW,229,3.1,4.0,58,0.00,,---,0.00,VWS V13.01,2013-12-17 10:07:00,
2013-12-17 04:12:00,12.9,0.9,29.75,SW,229,0.0,2.7,58,0.00,,---,0.00,VWS V13.01,2013-12-17 10:12:00,
2013-12-17 04:17:00,12.9,0.9,29.75,SW,219,3.6,3.6,58,0.00,,---,0.00,VWS V13.01,2013-12-17 10:17:00,
2013-12-17 04:22:00,12.9,0.9,29.75,SSW,198,4.7,5.6,58,0.00,,---,0.00,VWS V13.01,2013-12-17 10:22:00,
2013-12-17 04:27:00,13.1,1.1,29.75,SW,221,4.0,4.0,58,0.00,,---,0.00,VWS V13.01,2013-12-17 10:27:00,
2013-12-17 04:33:00,13.5,1.5,29.72,SW,233,4.5,4.5,58,0.00,,---,0.00,VWS V13.01,2013-12-17 10:33:00,
2013-12-17 04:38:00,13.6,1.6,29.72,WSW,237,3.6,3.6,58,0.00,,---,0.00,VWS V13.01,2013-12-17 10:38:00,
2013-12-17 04:43:00,13.8,1.8,29.72,SW,226,3.6,3.6,58,0.00,,---,0.00,VWS V13.01,2013-12-17 10:43:00,
2013-12-17 04:48:00,14.0,3.4,29.75,SW,236,4.0,4.0,62,0.00,,---,0.00,VWS V13.01,2013-12-17 10:48:00,
2013-12-17 04:53:00,14.4,3.7,29.75,WSW,254,4.5,4.5,62,0.00,,---,0.00,VWS V13.01,2013-12-17 10:53:00,
2013-12-17 04:58:00,14.7,4.4,29.75,West,268,4.0,4.5,63,0.00,,---,0.00,VWS V13.01,2013-12-17 10:58:00,
2013-12-17 05:03:00,15.3,4.9,29.75,West,279,4.0,4.0,63,0.00,,---,0.00,VWS V13.01,2013-12-17 11:03:00,
2013-12-17 05:08:00,15.8,5.4,29.75,WSW,255,6.0,6.0,63,0.00,,---,0.00,VWS V13.01,2013-12-17 11:08:00,
2013-12-17 05:13:00,15.8,5.4,29.75,WNW,294,4.5,7.4,63,0.00,,---,0.00,VWS V13.01,2013-12-17 11:13:00,
2013-12-17 05:19:00,16.0,5.6,29.75,WNW,300,3.6,3.6,63,0.00,,---,0.00,VWS V13.01,2013-12-17 11:19:00,
2013-12-17 05:24:00,16.2,5.8,29.75,West,266,4.0,4.5,63,0.00,,---,0.00,VWS V13.01,2013-12-17 11:24:00,
2013-12-17 05:29:00,16.5,6.1,29.75,West,281,4.5,4.5,63,0.00,,---,0.00,VWS V13.01,2013-12-17 11:29:00,
2013-12-17 05:34:00,16.7,6.3,29.75,WSW,247,5.1,6.5,63,0.00,,---,0.00,VWS V13.01,2013-12-17 11:34:00,
2013-12-17 05:39:00,16.7,6.3,29.75,West,265,3.1,5.6,63,0.00,,---,0.00,VWS V13.01,2013-12-17 11:39:00,
2013-12-17 05:44:00,16.9,6.5,29.75,West,267,4.7,4.7,63,0.00,,---,0.00,VWS V13.01,2013-12-17 11:44:00,
2013-12-17 05:49:00,16.9,6.5,29.75,West,275,4.7,5.1,63,0.00,,---,0.00,VWS V13.01,2013-12-17 11:49:00,
2013-12-17 05:54:00,17.1,7.0,29.75,NW,309,5.1,7.8,64,0.00,,---,0.00,VWS V13.01,2013-12-17 11:54:00,
2013-12-17 05:59:00,17.1,7.0,29.75,West,278,5.1,8.3,64,0.00,,---,0.00,VWS V13.01,2013-12-17 11:59:00,
2013-12-17 06:04:00,17.2,7.2,29.75,West,264,5.1,5.1,64,0.00,,---,0.00,VWS V13.01,2013-12-17 12:04:00,
2013-12-17 06:09:00,17.2,7.2,29.75,West,270,6.5,6.5,64,0.00,,---,0.00,VWS V13.01,2013-12-17 12:09:00,
2013-12-17 06:15:00,17.4,7.3,29.75,West,268,3.6,4.5,64,0.00,,---,0.00,VWS V13.01,2013-12-17 12:15:00,
2013-12-17 06:20:00,17.4,7.3,29.75,WSW,254,4.5,5.6,64,0.00,,---,0.00,VWS V13.01,2013-12-17 12:20:00,
2013-12-17 06:25:00,17.4,7.3,29.75,West,267,5.6,5.6,64,0.00,,---,0.00,VWS V13.01,2013-12-17 12:25:00,
2013-12-17 06:30:00,17.4,7.3,29.75,West,280,3.6,4.7,64,0.00,,---,0.00,VWS V13.01,2013-12-17 12:30:00,
2013-12-17 06:35:00,17.4,7.3,29.75,West,281,4.0,5.1,64,0.00,,---,0.00,VWS V13.01,2013-12-17 12:35:00,
2013-12-17 06:40:00,17.4,7.3,29.75,WNW,290,4.5,4.7,64,0.00,,---,0.00,VWS V13.01,2013-12-17 12:40:00,
2013-12-17 06:45:00,17.4,7.3,29.75,WNW,294,4.0,4.5,64,0.00,,---,0.00,VWS V13.01,2013-12-17 12:45:00,
2013-12-17 06:50:00,17.8,7.7,29.75,West,270,4.5,4.5,64,0.00,,---,0.00,VWS V13.01,2013-12-17 12:50:00,
2013-12-17 06:55:00,17.8,7.7,29.75,West,269,4.0,4.7,64,0.00,,---,0.00,VWS V13.01,2013-12-17 12:55:00,
2013-12-17 07:00:00,17.6,7.5,29.75,West,269,4.5,5.1,64,0.00,,---,0.00,VWS V13.01,2013-12-17 13:00:00,
2013-12-17 07:05:00,17.6,7.5,29.75,West,274,4.7,4.7,64,0.00,,---,0.00,VWS V13.01,2013-12-17 13:05:00,
2013-12-17 07:11:00,17.8,7.7,29.75,NW,316,4.7,6.0,64,0.00,,---,0.00,VWS V13.01,2013-12-17 13:11:00,
2013-12-17 07:16:00,17.8,7.7,29.75,West,273,3.1,3.6,64,0.00,,---,0.00,VWS V13.01,2013-12-17 13:16:00,
2013-12-17 07:21:00,17.8,7.7,29.75,West,263,3.6,4.0,64,0.00,,---,0.00,VWS V13.01,2013-12-17 13:21:00,
2013-12-17 07:26:00,17.8,7.7,29.75,SW,227,4.0,4.0,64,0.00,,---,0.00,VWS V13.01,2013-12-17 13:26:00,
2013-12-17 07:31:00,17.6,7.5,29.75,SW,229,0.0,0.0,64,0.00,,---,0.00,VWS V13.01,2013-12-17 13:31:00,
2013-12-17 07:36:00,17.4,7.3,29.75,West,265,3.6,4.5,64,0.00,,---,0.00,VWS V13.01,2013-12-17 13:36:00,
2013-12-17 07:41:00,17.4,7.3,29.75,West,267,3.6,4.0,64,0.00,,---,0.00,VWS V13.01,2013-12-17 13:41:00,
2013-12-17 07:46:00,17.4,7.3,29.75,West,274,4.0,4.5,64,0.00,,---,0.00,VWS V13.01,2013-12-17 13:46:00,
2013-12-17 07:51:00,17.4,7.3,29.75,West,263,3.6,3.6,64,0.00,,---,0.00,VWS V13.01,2013-12-17 13:51:00,
2013-12-17 07:56:00,17.4,7.3,29.75,WSW,252,3.1,3.1,64,0.00,,---,0.00,VWS V13.01,2013-12-17 13:56:00,
2013-12-17 08:01:00,17.4,7.3,29.75,West,272,4.0,5.1,64,0.00,,---,0.00,VWS V13.01,2013-12-17 14:01:00,
2013-12-17 08:06:00,16.9,6.5,29.75,SSW,211,3.6,4.0,63,0.00,,---,0.00,VWS V13.01,2013-12-17 14:06:00,
2013-12-17 08:12:00,16.0,5.3,29.75,SSE,162,4.7,4.7,62,0.00,,---,0.00,VWS V13.01,2013-12-17 14:12:00,
2013-12-17 08:17:00,14.7,3.4,29.75,SSE,156,4.0,4.5,60,0.00,,---,0.00,VWS V13.01,2013-12-17 14:17:00,
2013-12-17 08:22:00,13.8,2.5,29.75,SSE,156,2.7,3.6,60,0.00,,---,0.00,VWS V13.01,2013-12-17 14:22:00,
2013-12-17 08:27:00,13.6,2.3,29.75,SSE,163,3.6,4.0,60,0.00,,---,0.00,VWS V13.01,2013-12-17 14:27:00,
2013-12-17 08:32:00,13.8,2.5,29.78,South,175,0.0,0.0,60,0.00,,---,0.00,VWS V13.01,2013-12-17 14:32:00,
2013-12-17 08:37:00,14.0,3.4,29.78,South,175,0.0,0.0,62,0.00,,---,0.00,VWS V13.01,2013-12-17 14:37:00,
2013-12-17 08:42:00,14.2,3.6,29.78,South,169,3.6,4.0,62,0.00,,---,0.00,VWS V13.01,2013-12-17 14:42:00,
2013-12-17 08:47:00,14.7,4.1,29.78,SE,131,3.6,5.1,62,0.00,,---,0.00,VWS V13.01,2013-12-17 14:47:00,
2013-12-17 08:52:00,16.0,5.6,29.78,SSW,196,6.5,6.5,63,0.00,,---,0.00,VWS V13.01,2013-12-17 14:52:00,
2013-12-17 08:57:00,18.0,8.2,29.78,NW,305,5.6,5.6,65,0.00,,---,0.00,VWS V13.01,2013-12-17 14:57:00,
2013-12-17 09:02:00,19.4,9.9,29.78,West,260,4.0,4.7,66,0.00,,---,0.00,VWS V13.01,2013-12-17 15:02:00,
2013-12-17 09:07:00,20.3,10.8,29.78,West,277,4.5,5.1,66,0.00,,---,0.00,VWS V13.01,2013-12-17 15:07:00,
2013-12-17 09:12:00,20.7,11.1,29.78,WNW,285,5.1,6.5,66,0.00,,---,0.00,VWS V13.01,2013-12-17 15:12:00,
2013-12-17 09:18:00,20.8,11.3,29.78,WNW,294,4.7,4.7,66,0.00,,---,0.00,VWS V13.01,2013-12-17 15:18:00,
2013-12-17 09:23:00,20.8,11.3,29.78,WNW,303,5.6,5.6,66,0.00,,---,0.00,VWS V13.01,2013-12-17 15:23:00,
2013-12-17 09:28:00,21.0,11.5,29.78,North,0,3.6,4.0,66,0.00,,---,0.00,VWS V13.01,2013-12-17 15:28:00,
2013-12-17 09:33:00,21.0,11.5,29.78,WNW,294,4.7,4.7,66,0.00,,---,0.00,VWS V13.01,2013-12-17 15:33:00,
2013-12-17 09:38:00,21.2,11.6,29.78,West,272,5.1,5.6,66,0.00,,---,0.00,VWS V13.01,2013-12-17 15:38:00,
2013-12-17 09:43:00,21.2,11.3,29.78,WNW,292,4.7,5.1,65,0.00,,---,0.00,VWS V13.01,2013-12-17 15:43:00,
2013-12-17 09:48:00,21.2,11.3,29.78,NW,310,5.1,5.6,65,0.00,,---,0.00,VWS V13.01,2013-12-17 15:48:00,
2013-12-17 09:53:00,21.4,11.5,29.78,WNW,282,4.5,6.9,65,0.00,,---,0.00,VWS V13.01,2013-12-17 15:53:00,
2013-12-17 09:59:00,21.6,11.6,29.78,NW,308,3.1,4.5,65,0.00,,---,0.00,VWS V13.01,2013-12-17 15:59:00,
2013-12-17 10:04:00,21.6,11.6,29.81,West,279,4.0,4.0,65,0.00,,---,0.00,VWS V13.01,2013-12-17 16:04:00,
2013-12-17 10:09:00,21.7,11.8,29.81,NNW,327,4.0,4.5,65,0.00,,---,0.00,VWS V13.01,2013-12-17 16:09:00,
2013-12-17 10:14:00,21.7,11.8,29.81,West,261,3.6,4.0,65,0.00,,---,0.00,VWS V13.01,2013-12-17 16:14:00,
2013-12-17 10:19:00,21.9,12.0,29.81,NW,306,0.0,3.6,65,0.00,,---,0.00,VWS V13.01,2013-12-17 16:19:00,
2013-12-17 10:24:00,22.1,12.1,29.81,WNW,291,5.1,5.1,65,0.00,,---,0.00,VWS V13.01,2013-12-17 16:24:00,
2013-12-17 10:29:00,22.3,12.3,29.81,SW,236,5.6,5.6,65,0.00,,---,0.00,VWS V13.01,2013-12-17 16:29:00,
2013-12-17 10:34:00,22.5,12.8,29.81,WSW,243,3.6,4.0,66,0.00,,---,0.00,VWS V13.01,2013-12-17 16:34:00,
2013-12-17 10:39:00,22.6,13.0,29.81,West,274,4.0,4.0,66,0.00,,---,0.00,VWS V13.01,2013-12-17 16:39:00,
2013-12-17 10:44:00,22.8,12.8,29.81,WNW,291,2.7,3.1,65,0.00,,---,0.00,VWS V13.01,2013-12-17 16:44:00,
2013-12-17 10:49:00,22.8,12.8,29.81,NNW,345,3.1,3.1,65,0.00,,---,0.00,VWS V13.01,2013-12-17 16:49:00,
2013-12-17 10:54:00,22.8,12.8,29.81,North,353,3.6,4.7,65,0.00,,---,0.00,VWS V13.01,2013-12-17 16:54:00,
2013-12-17 11:00:00,22.8,12.8,29.81,NNW,337,4.0,5.1,65,0.00,,---,0.00,VWS V13.01,2013-12-17 17:00:00,
2013-12-17 11:05:00,22.8,12.8,29.81,WNW,288,3.6,3.6,65,0.00,,---,0.00,VWS V13.01,2013-12-17 17:05:00,
2013-12-17 11:10:00,23.5,13.5,29.81,North,350,4.7,4.7,65,0.00,,---,0.00,VWS V13.01,2013-12-17 17:10:00,
2013-12-17 11:15:00,23.9,13.9,29.81,WNW,294,3.6,4.5,65,0.00,,---,0.00,VWS V13.01,2013-12-17 17:15:00,
2013-12-17 11:20:00,24.1,14.0,29.81,WNW,290,3.1,3.1,65,0.00,,---,0.00,VWS V13.01,2013-12-17 17:20:00,
2013-12-17 11:25:00,24.3,13.9,29.81,NNW,335,3.6,4.5,64,0.00,,---,0.00,VWS V13.01,2013-12-17 17:25:00,
2013-12-17 11:30:00,24.1,13.7,29.81,SW,236,0.0,3.6,64,0.00,,---,0.00,VWS V13.01,2013-12-17 17:30:00,
2013-12-17 11:35:00,23.9,13.1,29.81,North,350,4.0,6.0,63,0.00,,---,0.00,VWS V13.01,2013-12-17 17:35:00,
2013-12-17 11:40:00,24.1,12.6,29.81,NW,315,4.7,6.9,61,0.00,,---,0.00,VWS V13.01,2013-12-17 17:40:00,
2013-12-17 11:45:00,23.9,11.7,29.81,WNW,302,5.6,5.6,59,0.00,,---,0.00,VWS V13.01,2013-12-17 17:45:00,
2013-12-17 11:50:00,23.7,10.3,29.81,NW,320,4.0,4.5,56,0.00,,---,0.00,VWS V13.01,2013-12-17 17:50:00,
2013-12-17 11:55:00,23.5,9.8,29.81,NW,322,3.1,4.5,55,0.00,,---,0.00,VWS V13.01,2013-12-17 17:55:00,
2013-12-17 12:00:00,23.4,9.2,29.81,WNW,286,3.1,5.6,54,0.00,,---,0.00,VWS V13.01,2013-12-17 18:00:00,
2013-12-17 12:05:00,23.0,8.9,29.81,West,280,6.5,6.5,54,0.00,,---,0.00,VWS V13.01,2013-12-17 18:05:00,
2013-12-17 12:10:00,22.8,8.3,29.81,NNE,16,5.1,7.8,53,0.00,,---,0.00,VWS V13.01,2013-12-17 18:10:00,
2013-12-17 12:15:00,22.6,8.1,29.81,SW,232,6.9,7.4,53,0.00,,---,0.00,VWS V13.01,2013-12-17 18:15:00,
2013-12-17 12:21:00,22.5,7.5,29.81,North,353,7.8,8.3,52,0.00,,---,0.00,VWS V13.01,2013-12-17 18:21:00,
2013-12-17 12:26:00,22.3,6.9,29.81,NNW,334,4.0,4.5,51,0.00,,---,0.00,VWS V13.01,2013-12-17 18:26:00,
2013-12-17 12:31:00,22.3,7.3,29.84,NW,309,4.5,6.0,52,0.00,,---,0.00,VWS V13.01,2013-12-17 18:31:00,
2013-12-17 12:36:00,22.3,7.3,29.84,West,279,5.6,6.0,52,0.00,,---,0.00,VWS V13.01,2013-12-17 18:36:00,
2013-12-17 12:41:00,22.3,6.9,29.84,WNW,297,4.0,4.7,51,0.00,,---,0.00,VWS V13.01,2013-12-17 18:41:00,
2013-12-17 12:46:00,22.3,6.9,29.81,NNW,337,4.5,4.7,51,0.00,,---,0.00,VWS V13.01,2013-12-17 18:46:00,
2013-12-17 12:51:00,22.3,6.9,29.81,WNW,287,4.7,6.5,51,0.00,,---,0.00,VWS V13.01,2013-12-17 18:51:00,
2013-12-17 12:56:00,22.1,6.8,29.81,WNW,292,4.5,5.1,51,0.00,,---,0.00,VWS V13.01,2013-12-17 18:56:00,
2013-12-17 13:01:00,22.1,6.8,29.84,North,357,4.7,6.5,51,0.00,,---,0.00,VWS V13.01,2013-12-17 19:01:00,
2013-12-17 13:06:00,21.9,6.6,29.84,NNW,331,6.0,8.3,51,0.00,,---,0.00,VWS V13.01,2013-12-17 19:06:00,
2013-12-17 13:11:00,21.4,6.5,29.84,NNW,342,5.6,6.9,52,0.00,,---,0.00,VWS V13.01,2013-12-17 19:11:00,
2013-12-17 13:16:00,21.2,6.8,29.84,NW,310,7.4,7.4,53,0.00,,---,0.00,VWS V13.01,2013-12-17 19:16:00,
2013-12-17 13:21:00,21.0,6.2,29.84,NNW,339,6.9,6.9,52,0.00,,---,0.00,VWS V13.01,2013-12-17 19:21:00,
2013-12-17 13:26:00,20.8,5.6,29.84,NNE,17,6.5,7.4,51,0.00,,---,0.00,VWS V13.01,2013-12-17 19:26:00,
2013-12-17 13:31:00,20.5,4.8,29.84,NNW,331,4.5,5.6,50,0.00,,---,0.00,VWS V13.01,2013-12-17 19:31:00,
2013-12-17 13:37:00,20.5,4.8,29.84,NNW,342,4.0,4.7,50,0.00,,---,0.00,VWS V13.01,2013-12-17 19:37:00,
2013-12-17 13:42:00,20.3,4.2,29.84,NW,325,4.0,6.0,49,0.00,,---,0.00,VWS V13.01,2013-12-17 19:42:00,
2013-12-17 13:47:00,20.3,4.2,29.84,NNE,19,7.4,7.4,49,0.00,,---,0.00,VWS V13.01,2013-12-17 19:47:00,
2013-12-17 13:52:00,20.1,3.1,29.84,NNW,348,4.0,6.5,47,0.00,,---,0.00,VWS V13.01,2013-12-17 19:52:00,
2013-12-17 13:57:00,20.1,3.1,29.84,NNW,338,4.0,6.0,47,0.00,,---,0.00,VWS V13.01,2013-12-17 19:57:00,
2013-12-17 14:02:00,20.1,3.1,29.84,North,353,5.1,5.1,47,0.00,,---,0.00,VWS V13.01,2013-12-17 20:02:00,
2013-12-17 14:07:00,19.9,3.0,29.84,NE,36,6.0,6.0,47,0.00,,---,0.00,VWS V13.01,2013-12-17 20:07:00,
2013-12-17 14:12:00,19.9,3.0,29.84,NNW,334,3.6,4.0,47,0.00,,---,0.00,VWS V13.01,2013-12-17 20:12:00,
2013-12-17 14:17:00,19.9,3.0,29.84,NW,325,3.6,4.7,47,0.00,,---,0.00,VWS V13.01,2013-12-17 20:17:00,
2013-12-17 14:22:00,19.9,3.0,29.84,NNW,338,3.6,5.1,47,0.00,,---,0.00,VWS V13.01,2013-12-17 20:22:00,
2013-12-17 14:27:00,19.9,3.0,29.84,West,264,5.1,5.1,47,0.00,,---,0.00,VWS V13.01,2013-12-17 20:27:00,
2013-12-17 14:32:00,19.9,3.0,29.84,WSW,247,5.1,5.1,47,0.00,,---,0.00,VWS V13.01,2013-12-17 20:32:00,
2013-12-17 14:37:00,19.9,2.5,29.84,NW,304,5.1,7.4,46,0.00,,---,0.00,VWS V13.01,2013-12-17 20:37:00,
2013-12-17 14:42:00,19.8,2.3,29.84,WNW,284,4.0,4.5,46,0.00,,---,0.00,VWS V13.01,2013-12-17 20:42:00,
2013-12-17 14:47:00,19.8,2.3,29.87,West,262,4.0,4.5,46,0.00,,---,0.00,VWS V13.01,2013-12-17 20:47:00,
2013-12-17 14:52:00,19.6,2.2,29.87,WNW,291,5.6,5.6,46,0.00,,---,0.00,VWS V13.01,2013-12-17 20:52:00,
2013-12-17 14:57:00,19.4,2.5,29.87,West,265,7.4,7.4,47,0.00,,---,0.00,VWS V13.01,2013-12-17 20:57:00,
2013-12-17 15:03:00,19.0,2.1,29.87,NNW,332,6.5,6.5,47,0.00,,---,0.00,VWS V13.01,2013-12-17 21:03:00,
2013-12-17 15:08:00,18.7,1.8,29.87,WNW,301,5.6,6.0,47,0.00,,---,0.00,VWS V13.01,2013-12-17 21:08:00,
2013-12-17 15:13:00,18.5,1.6,29.87,North,2,5.1,8.3,47,0.00,,---,0.00,VWS V13.01,2013-12-17 21:13:00,
2013-12-17 15:18:00,18.3,1.5,29.87,NNW,329,4.0,5.6,47,0.00,,---,0.00,VWS V13.01,2013-12-17 21:18:00,
2013-12-17 15:23:00,18.1,0.9,29.87,NNW,333,3.1,4.7,46,0.00,,---,0.00,VWS V13.01,2013-12-17 21:23:00,
2013-12-17 15:28:00,18.1,0.9,29.87,West,280,6.0,6.0,46,0.00,,---,0.00,VWS V13.01,2013-12-17 21:28:00,
2013-12-17 15:33:00,18.1,0.9,29.90,WNW,293,4.7,5.1,46,0.00,,---,0.00,VWS V13.01,2013-12-17 21:33:00,
2013-12-17 15:38:00,18.1,0.4,29.90,West,260,6.0,6.9,45,0.00,,---,0.00,VWS V13.01,2013-12-17 21:38:00,
2013-12-17 15:43:00,18.0,0.2,29.90,West,276,5.6,5.6,45,0.00,,---,0.00,VWS V13.01,2013-12-17 21:43:00,
2013-12-17 15:48:00,18.0,0.2,29.90,NW,318,4.5,4.5,45,0.00,,---,0.00,VWS V13.01,2013-12-17 21:48:00,
2013-12-17 15:53:00,17.8,0.1,29.90,WSW,249,5.1,6.5,45,0.00,,---,0.00,VWS V13.01,2013-12-17 21:53:00,
2013-12-17 15:58:00,17.8,0.1,29.90,West,264,5.6,5.6,45,0.00,,---,0.00,VWS V13.01,2013-12-17 21:58:00,
2013-12-17 16:04:00,17.6,-0.1,29.90,NW,317,5.6,5.6,45,0.00,,---,0.00,VWS V13.01,2013-12-17 22:04:00,
2013-12-17 16:09:00,17.4,-0.3,29.90,West,272,3.1,6.0,45,0.00,,---,0.00,VWS V13.01,2013-12-17 22:09:00,
2013-12-17 16:14:00,17.2,-0.4,29.90,NNW,340,5.6,5.6,45,0.00,,---,0.00,VWS V13.01,2013-12-17 22:14:00,
2013-12-17 16:19:00,17.1,-0.6,29.93,WNW,295,4.7,4.7,45,0.00,,---,0.00,VWS V13.01,2013-12-17 22:19:00,
2013-12-17 16:24:00,16.7,-0.9,29.93,North,3,3.6,5.6,45,0.00,,---,0.00,VWS V13.01,2013-12-17 22:24:00,
2013-12-17 16:29:00,16.5,-1.1,29.93,West,264,6.0,8.7,45,0.00,,---,0.00,VWS V13.01,2013-12-17 22:29:00,
2013-12-17 16:34:00,16.2,-1.9,29.93,West,266,6.9,9.4,44,0.00,,---,0.00,VWS V13.01,2013-12-17 22:34:00,
2013-12-17 16:39:00,16.0,-2.1,29.93,WNW,290,4.7,5.1,44,0.00,,---,0.00,VWS V13.01,2013-12-17 22:39:00,
2013-12-17 16:44:00,15.8,-2.2,29.93,WSW,255,5.6,5.6,44,0.00,,---,0.00,VWS V13.01,2013-12-17 22:44:00,
2013-12-17 16:49:00,15.4,-2.6,29.93,NW,305,4.7,6.5,44,0.00,,---,0.00,VWS V13.01,2013-12-17 22:49:00,
2013-12-17 16:54:00,15.3,-2.7,29.93,WNW,295,4.5,6.5,44,0.00,,---,0.00,VWS V13.01,2013-12-17 22:54:00,
2013-12-17 16:59:00,15.3,-2.7,29.93,West,278,6.5,9.4,44,0.00,,---,0.00,VWS V13.01,2013-12-17 22:59:00,
2013-12-17 17:04:00,15.1,-2.9,29.93,West,279,4.5,6.0,44,0.00,,---,0.00,VWS V13.01,2013-12-17 23:04:00,
2013-12-17 17:10:00,14.9,-3.1,29.93,NW,315,5.6,8.3,44,0.00,,---,0.00,VWS V13.01,2013-12-17 23:10:00,
2013-12-17 17:15:00,14.7,-3.2,29.93,NNW,331,4.7,5.1,44,0.00,,---,0.00,VWS V13.01,2013-12-17 23:15:00,
2013-12-17 17:20:00,14.5,-3.4,29.93,NNW,335,6.9,6.9,44,0.00,,---,0.00,VWS V13.01,2013-12-17 23:20:00,
2013-12-17 17:25:00,14.5,-3.4,29.93,West,261,5.6,5.6,44,0.00,,---,0.00,VWS V13.01,2013-12-17 23:25:00,
2013-12-17 17:30:00,14.4,-3.6,29.96,North,5,6.0,7.8,44,0.00,,---,0.00,VWS V13.01,2013-12-17 23:30:00,
2013-12-17 17:35:00,14.2,-3.7,29.96,NW,305,4.5,5.6,44,0.00,,---,0.00,VWS V13.01,2013-12-17 23:35:00,
2013-12-17 17:40:00,14.2,-3.7,29.96,North,3,5.6,7.4,44,0.00,,---,0.00,VWS V13.01,2013-12-17 23:40:00,
2013-12-17 17:45:00,14.0,-3.4,29.96,North,350,4.5,4.5,45,0.00,,---,0.00,VWS V13.01,2013-12-17 23:45:00,
2013-12-17 17:50:00,13.8,-3.6,29.96,NW,309,4.5,4.5,45,0.00,,---,0.00,VWS V13.01,2013-12-17 23:50:00,
2013-12-17 17:55:00,13.8,-3.6,29.96,NW,305,4.5,4.7,45,0.00,,---,0.00,VWS V13.01,2013-12-17 23:55:00,
2013-12-17 18:00:00,13.6,-3.8,29.96,WNW,299,5.6,5.6,45,0.00,,---,0.00,VWS V13.01,2013-12-18 00:00:00,
2013-12-17 18:05:00,13.5,-3.9,29.96,WNW,294,4.5,5.1,45,0.00,,---,0.00,VWS V13.01,2013-12-18 00:05:00,
2013-12-17 18:11:00,13.5,-3.9,29.96,WNW,300,4.0,6.5,45,0.00,,---,0.00,VWS V13.01,2013-12-18 00:11:00,
2013-12-17 18:16:00,13.3,-4.1,29.96,WNW,301,5.6,5.6,45,0.00,,---,0.00,VWS V13.01,2013-12-18 00:16:00,
2013-12-17 18:21:00,13.1,-4.2,29.96,WNW,293,4.0,4.7,45,0.00,,---,0.00,VWS V13.01,2013-12-18 00:21:00,
2013-12-17 18:26:00,12.9,-4.4,29.96,NW,311,5.1,5.1,45,0.00,,---,0.00,VWS V13.01,2013-12-18 00:26:00,
2013-12-17 18:31:00,12.9,-4.4,29.96,NW,323,5.1,6.0,45,0.00,,---,0.00,VWS V13.01,2013-12-18 00:31:00,
2013-12-17 18:36:00,12.9,-4.4,29.96,North,353,3.6,4.7,45,0.00,,---,0.00,VWS V13.01,2013-12-18 00:36:00,
2013-12-17 18:41:00,12.7,-4.6,29.96,WNW,284,6.5,6.5,45,0.00,,---,0.00,VWS V13.01,2013-12-18 00:41:00,
2013-12-17 18:46:00,12.7,-4.6,29.98,West,276,4.7,4.7,45,0.00,,---,0.00,VWS V13.01,2013-12-18 00:46:00,
2013-12-17 18:51:00,12.7,-4.6,29.98,NW,310,4.0,4.7,45,0.00,,---,0.00,VWS V13.01,2013-12-18 00:51:00,
2013-12-17 18:57:00,12.6,-4.7,29.98,NNW,345,7.4,7.4,45,0.00,,---,0.00,VWS V13.01,2013-12-18 00:57:00,
2013-12-17 19:02:00,12.6,-4.7,29.98,NNW,327,5.1,5.1,45,0.00,,---,0.00,VWS V13.01,2013-12-18 01:02:00,
2013-12-17 19:07:00,12.6,-4.7,29.98,WNW,290,4.7,4.7,45,0.00,,---,0.00,VWS V13.01,2013-12-18 01:07:00,
2013-12-17 19:12:00,12.6,-4.7,29.98,West,261,4.5,6.5,45,0.00,,---,0.00,VWS V13.01,2013-12-18 01:12:00,
2013-12-17 19:17:00,12.6,-4.7,29.98,NW,304,3.1,6.0,45,0.00,,---,0.00,VWS V13.01,2013-12-18 01:17:00,
2013-12-17 19:22:00,12.4,-4.9,29.98,WNW,293,5.1,7.4,45,0.00,,---,0.00,VWS V13.01,2013-12-18 01:22:00,
2013-12-17 19:27:00,12.4,-4.9,29.98,WNW,290,4.0,4.0,45,0.00,,---,0.00,VWS V13.01,2013-12-18 01:27:00,
2013-12-17 19:32:00,12.2,-5.1,29.98,West,273,6.0,6.0,45,0.00,,---,0.00,VWS V13.01,2013-12-18 01:32:00,
2013-12-17 19:37:00,12.2,-5.1,29.98,NNW,342,4.5,5.1,45,0.00,,---,0.00,VWS V13.01,2013-12-18 01:37:00,
2013-12-17 19:42:00,12.0,-5.2,29.98,NW,313,4.0,4.5,45,0.00,,---,0.00,VWS V13.01,2013-12-18 01:42:00,
2013-12-17 19:47:00,12.0,-5.2,29.96,NNW,340,4.7,4.7,45,0.00,,---,0.00,VWS V13.01,2013-12-18 01:47:00,
2013-12-17 19:52:00,12.0,-5.2,29.96,North,353,4.0,4.0,45,0.00,,---,0.00,VWS V13.01,2013-12-18 01:52:00,
2013-12-17 19:57:00,11.8,-5.4,29.96,West,267,3.1,4.7,45,0.00,,---,0.00,VWS V13.01,2013-12-18 01:57:00,
2013-12-17 20:02:00,11.8,-5.4,29.96,NNW,339,4.5,5.1,45,0.00,,---,0.00,VWS V13.01,2013-12-18 02:02:00,
2013-12-17 20:07:00,11.8,-5.4,29.96,NNW,338,3.1,3.1,45,0.00,,---,0.00,VWS V13.01,2013-12-18 02:07:00,
2013-12-17 20:12:00,11.8,-5.4,29.96,NNW,338,4.0,4.0,45,0.00,,---,0.00,VWS V13.01,2013-12-18 02:12:00,
2013-12-17 20:17:00,11.8,-5.4,29.96,West,276,3.6,5.1,45,0.00,,---,0.00,VWS V13.01,2013-12-18 02:17:00,
2013-12-17 20:22:00,11.8,-5.4,29.96,WNW,297,0.0,0.0,45,0.00,,---,0.00,VWS V13.01,2013-12-18 02:22:00,
2013-12-17 20:27:00,11.8,-5.4,29.96,West,276,4.0,4.7,45,0.00,,---,0.00,VWS V13.01,2013-12-18 02:27:00,
2013-12-17 20:32:00,11.7,-5.6,29.96,NW,317,3.6,3.6,45,0.00,,---,0.00,VWS V13.01,2013-12-18 02:32:00,
2013-12-17 20:37:00,11.8,-5.4,29.96,West,259,4.7,4.7,45,0.00,,---,0.00,VWS V13.01,2013-12-18 02:37:00,
2013-12-17 20:42:00,11.8,-5.4,29.96,WNW,289,0.0,3.6,45,0.00,,---,0.00,VWS V13.01,2013-12-18 02:42:00,
2013-12-17 20:47:00,11.8,-5.4,29.96,West,273,3.1,5.1,45,0.00,,---,0.00,VWS V13.01,2013-12-18 02:47:00,
2013-12-17 20:52:00,11.8,-5.4,29.96,WNW,302,4.5,6.0,45,0.00,,---,0.00,VWS V13.01,2013-12-18 02:52:00,
2013-12-17 20:57:00,11.8,-5.4,29.96,WNW,289,4.0,4.0,45,0.00,,---,0.00,VWS V13.01,2013-12-18 02:57:00,
2013-12-17 21:02:00,11.7,-5.6,29.98,West,280,4.7,5.1,45,0.00,,---,0.00,VWS V13.01,2013-12-18 03:02:00,
2013-12-17 21:07:00,11.7,-5.6,29.98,SW,236,3.1,5.1,45,0.00,,---,0.00,VWS V13.01,2013-12-18 03:07:00,
2013-12-17 21:12:00,11.7,-5.6,29.98,West,265,4.5,5.6,45,0.00,,---,0.00,VWS V13.01,2013-12-18 03:12:00,
2013-12-17 21:17:00,11.7,-5.6,29.98,WSW,253,3.1,4.7,45,0.00,,---,0.00,VWS V13.01,2013-12-18 03:17:00,
2013-12-17 21:22:00,11.7,-5.6,29.98,West,270,4.5,4.7,45,0.00,,---,0.00,VWS V13.01,2013-12-18 03:22:00,
2013-12-17 21:27:00,11.7,-5.6,29.98,SW,230,5.6,8.9,45,0.00,,---,0.00,VWS V13.01,2013-12-18 03:27:00,
2013-12-17 21:32:00,11.1,-6.1,29.98,WNW,288,6.0,6.0,45,0.00,,---,0.00,VWS V13.01,2013-12-18 03:32:00,
2013-12-17 21:37:00,10.9,-6.2,29.98,West,279,6.9,6.9,45,0.00,,---,0.00,VWS V13.01,2013-12-18 03:37:00,
2013-12-17 21:42:00,10.6,-6.6,29.98,WSW,250,3.6,6.5,45,0.00,,---,0.00,VWS V13.01,2013-12-18 03:42:00,
2013-12-17 21:47:00,10.2,-6.9,29.98,West,270,4.0,4.0,45,0.00,,---,0.00,VWS V13.01,2013-12-18 03:47:00,
2013-12-17 21:52:00,10.0,-7.1,29.98,West,277,3.1,5.1,45,0.00,,---,0.00,VWS V13.01,2013-12-18 03:52:00,
2013-12-17 21:57:00,9.7,-7.4,29.98,West,266,4.5,4.7,45,0.00,,---,0.00,VWS V13.01,2013-12-18 03:57:00,
2013-12-17 22:02:00,9.3,-7.7,29.98,West,280,4.0,5.6,45,0.00,,---,0.00,VWS V13.01,2013-12-18 04:02:00,
2013-12-17 22:07:00,9.1,-7.9,29.98,West,276,4.5,4.5,45,0.00,,---,0.00,VWS V13.01,2013-12-18 04:07:00,
2013-12-17 22:12:00,9.0,-8.1,29.98,WSW,239,8.9,8.9,45,0.00,,---,0.00,VWS V13.01,2013-12-18 04:12:00,
2013-12-17 22:17:00,8.8,-8.2,29.98,SW,226,7.4,7.4,45,0.00,,---,0.00,VWS V13.01,2013-12-18 04:17:00,
2013-12-17 22:22:00,8.6,-8.4,29.98,WNW,293,5.1,7.8,45,0.00,,---,0.00,VWS V13.01,2013-12-18 04:22:00,
2013-12-17 22:27:00,8.4,-8.5,29.98,WSW,248,3.6,6.9,45,0.00,,---,0.00,VWS V13.01,2013-12-18 04:27:00,
2013-12-17 22:32:00,8.2,-8.7,29.98,West,277,3.6,6.5,45,0.00,,---,0.00,VWS V13.01,2013-12-18 04:32:00,
2013-12-17 22:37:00,8.1,-8.9,29.98,South,181,5.1,7.8,45,0.00,,---,0.00,VWS V13.01,2013-12-18 04:37:00,
2013-12-17 22:42:00,7.9,-9.0,29.98,West,277,5.1,5.1,45,0.00,,---,0.00,VWS V13.01,2013-12-18 04:42:00,
2013-12-17 22:47:00,7.7,-9.2,29.98,West,261,3.1,4.0,45,0.00,,---,0.00,VWS V13.01,2013-12-18 04:47:00,
2013-12-17 22:52:00,7.5,-9.4,29.98,SW,227,3.6,5.6,45,0.00,,---,0.00,VWS V13.01,2013-12-18 04:52:00,
2013-12-17 22:57:00,7.2,-9.7,29.98,West,280,6.0,6.0,45,0.00,,---,0.00,VWS V13.01,2013-12-18 04:57:00,
2013-12-17 23:01:00,7.0,-9.9,29.98,West,281,6.0,6.5,45,0.00,,---,0.00,VWS V13.01,2013-12-18 05:01:00,
2013-12-17 23:02:00,6.8,-10.0,29.98,WNW,289,6.5,6.5,45,0.00,,---,0.00,VWS V13.01,2013-12-18 05:02:00,
2013-12-17 23:03:00,6.8,-10.0,29.98,WSW,251,4.7,6.9,45,0.00,,---,0.00,VWS V13.01,2013-12-18 05:03:00,
2013-12-17 23:08:00,6.4,-10.4,29.98,WNW,284,4.5,5.1,45,0.00,,---,0.00,VWS V13.01,2013-12-18 05:08:00,
2013-12-17 23:13:00,6.1,-10.7,29.98,NW,315,4.5,4.7,45,0.00,,---,0.00,VWS V13.01,2013-12-18 05:13:00,
2013-12-17 23:18:00,5.9,-10.9,29.98,West,280,3.1,3.6,45,0.00,,---,0.00,VWS V13.01,2013-12-18 05:18:00,
2013-12-17 23:23:00,5.5,-11.2,29.98,WNW,303,4.7,4.7,45,0.00,,---,0.00,VWS V13.01,2013-12-18 05:23:00,
2013-12-17 23:28:00,5.4,-11.4,29.98,WNW,298,6.0,6.5,45,0.00,,---,0.00,VWS V13.01,2013-12-18 05:28:00,
2013-12-17 23:33:00,5.0,-11.7,30.01,West,276,5.1,5.1,45,0.00,,---,0.00,VWS V13.01,2013-12-18 05:33:00,
2013-12-17 23:38:00,4.5,-12.2,30.01,West,269,4.0,4.5,45,0.00,,---,0.00,VWS V13.01,2013-12-18 05:38:00,
2013-12-17 23:43:00,4.3,-12.4,30.01,WNW,298,5.6,6.9,45,0.00,,---,0.00,VWS V13.01,2013-12-18 05:43:00,
2013-12-17 23:48:00,4.1,-12.5,30.01,West,265,6.9,6.9,45,0.00,,---,0.00,VWS V13.01,2013-12-18 05:48:00,
2013-12-17 23:53:00,3.9,-12.7,30.01,West,268,4.7,4.7,45,0.00,,---,0.00,VWS V13.01,2013-12-18 05:53:00,
2013-12-17 23:58:00,3.7,-12.9,30.01,West,273,6.5,6.5,45,0.00,,---,0.00,VWS V13.01,2013-12-18 05:58:00,